Time;durP1;ratioP1;P1;durP2;ratioP2;P2;SDS_P1;SDS_P2;PMS_P1;PMS_P2;Temp;Humidity;BMP_temperature;BMP_pressure;BME280_temperature;BME280_humidity;BME280_pressure;Samples;Min_cycle;Max_cycle;Signal;HPM_P1;HPM_P2
2021/10/08 00:01:35;;;;;;;8.90;7.90;;;12.40;99.90;;;;;;5034381;28;20173;-80
2021/10/08 00:04:01;;;;;;;9.10;7.63;;;12.40;99.90;;;;;;5018765;28;20195;-81
2021/10/08 00:06:27;;;;;;;10.82;8.15;;;12.40;99.90;;;;;;5024383;28;20219;-81
2021/10/08 00:08:53;;;;;;;8.40;7.50;;;12.30;99.90;;;;;;5003241;28;20169;-80
2021/10/08 00:11:19;;;;;;;8.43;7.53;;;12.30;99.90;;;;;;5001819;28;20727;-79
2021/10/08 00:13:45;;;;;;;10.10;8.23;;;12.30;99.90;;;;;;5037303;28;20611;-80
2021/10/08 00:16:12;;;;;;;9.03;8.00;;;12.30;99.90;;;;;;5037316;28;20174;-80
2021/10/08 00:18:39;;;;;;;9.45;7.90;;;12.30;99.90;;;;;;5017810;28;20245;-80
2021/10/08 00:21:06;;;;;;;9.57;7.60;;;12.30;99.90;;;;;;5016198;28;20166;-81
2021/10/08 00:23:33;;;;;;;9.05;7.82;;;12.30;99.90;;;;;;5016259;28;20166;-81
2021/10/08 00:25:59;;;;;;;11.02;8.57;;;12.30;99.90;;;;;;4999328;28;20185;-80
2021/10/08 00:28:25;;;;;;;7.63;6.87;;;12.30;99.90;;;;;;5015897;28;20174;-81
2021/10/08 00:30:51;;;;;;;7.97;7.05;;;12.30;99.90;;;;;;4998392;28;21135;-81
2021/10/08 00:33:17;;;;;;;7.37;6.67;;;12.20;99.90;;;;;;4996607;28;20193;-80
2021/10/08 00:35:44;;;;;;;8.20;7.32;;;12.20;99.90;;;;;;4986842;28;21081;-80
2021/10/08 00:38:11;;;;;;;10.88;7.10;;;12.20;99.90;;;;;;4996062;28;20541;-81
2021/10/08 00:40:40;;;;;;;7.55;6.75;;;12.20;99.90;;;;;;4979803;28;20170;-80
2021/10/08 00:43:06;;;;;;;7.20;6.38;;;12.20;99.90;;;;;;4986341;28;20241;-81
2021/10/08 00:45:33;;;;;;;8.15;6.80;;;12.20;99.90;;;;;;4980054;28;20556;-81
2021/10/08 00:48:01;;;;;;;9.50;6.93;;;12.20;99.90;;;;;;4996061;28;20163;-81
2021/10/08 00:50:27;;;;;;;7.10;6.15;;;12.10;99.90;;;;;;4979427;28;20224;-81
2021/10/08 00:52:54;;;;;;;8.82;7.55;;;12.10;99.90;;;;;;4995457;28;20702;-81
2021/10/08 00:55:20;;;;;;;7.70;6.55;;;12.10;99.90;;;;;;4995459;28;20218;-80
2021/10/08 00:57:48;;;;;;;7.75;6.93;;;12.10;99.90;;;;;;5013155;28;20631;-81
2021/10/08 01:00:16;;;;;;;8.50;7.25;;;12.10;99.90;;;;;;4963123;28;20174;-81
2021/10/08 01:02:43;;;;;;;13.52;7.57;;;12.00;99.90;;;;;;4979246;28;20179;-81
2021/10/08 01:05:10;;;;;;;7.65;6.82;;;12.10;99.90;;;;;;4963050;28;20190;-80
2021/10/08 01:07:36;;;;;;;7.35;6.65;;;12.10;99.90;;;;;;4979394;28;20654;-80
2021/10/08 01:10:05;;;;;;;8.52;7.63;;;12.00;99.90;;;;;;4995504;28;20533;-81
2021/10/08 01:12:34;;;;;;;9.98;7.55;;;12.00;99.90;;;;;;4995354;28;20669;-80
2021/10/08 01:15:00;;;;;;;7.53;6.80;;;12.00;99.90;;;;;;4994975;28;20214;-80
2021/10/08 01:17:26;;;;;;;7.82;6.80;;;12.00;99.90;;;;;;4995567;28;20166;-81
2021/10/08 01:20:09;;;;;;;7.65;6.40;;;12.00;99.90;;;;;;4986534;28;20171;-80
2021/10/08 01:22:41;;;;;;;6.85;6.15;;;12.00;99.90;;;;;;4995541;28;20702;-81
2021/10/08 01:25:14;;;;;;;7.63;6.72;;;12.00;99.90;;;;;;4963268;28;20198;-80
2021/10/08 01:27:43;;;;;;;8.18;7.38;;;11.90;99.90;;;;;;4978976;28;20515;-80
2021/10/08 01:30:16;;;;;;;9.25;6.53;;;11.90;99.90;;;;;;4994795;28;20177;-81
2021/10/08 01:32:47;;;;;;;7.43;5.70;;;11.90;99.90;;;;;;4978901;28;20214;-81
2021/10/08 01:35:16;;;;;;;10.63;7.97;;;11.90;99.90;;;;;;4996099;28;20563;-80
2021/10/08 01:37:44;;;;;;;7.80;7.00;;;11.90;99.90;;;;;;4999493;28;20166;-81
2021/10/08 01:40:11;;;;;;;10.00;6.18;;;11.90;99.90;;;;;;4990023;28;20202;-80
2021/10/08 01:42:41;;;;;;;10.43;7.32;;;11.90;99.90;;;;;;5014056;28;20182;-81
2021/10/08 01:45:09;;;;;;;7.03;6.22;;;11.90;99.90;;;;;;4999478;28;20249;-81
2021/10/08 01:47:35;;;;;;;7.43;6.72;;;11.80;99.90;;;;;;5013835;28;20181;-80
2021/10/08 01:50:04;;;;;;;8.02;6.70;;;11.90;99.90;;;;;;5012927;28;20174;-81
2021/10/08 01:52:35;;;;;;;6.65;6.05;;;11.80;99.90;;;;;;4983635;28;20570;-80
2021/10/08 01:55:01;;;;;;;10.05;6.32;;;11.80;99.90;;;;;;5003497;28;20205;-80
2021/10/08 01:57:31;;;;;;;7.00;6.32;;;11.80;99.90;;;;;;4986899;28;20208;-81
2021/10/08 01:59:57;;;;;;;7.28;5.75;;;11.70;99.90;;;;;;4996026;28;20166;-80
2021/10/08 02:02:24;;;;;;;7.72;6.43;;;11.70;99.90;;;;;;4995412;28;20175;-81
2021/10/08 02:04:50;;;;;;;9.13;7.20;;;11.70;99.90;;;;;;4995287;28;20972;-80
2021/10/08 02:07:16;;;;;;;10.68;5.82;;;11.70;99.90;;;;;;4979420;28;20977;-81
2021/10/08 02:09:43;;;;;;;7.33;6.43;;;11.70;99.90;;;;;;4995535;28;20170;-80
2021/10/08 02:12:10;;;;;;;8.68;7.10;;;11.70;99.90;;;;;;4995425;28;21005;-81
2021/10/08 02:14:37;;;;;;;6.05;5.07;;;11.70;99.90;;;;;;4998322;28;20285;-81
2021/10/08 02:17:03;;;;;;;6.40;5.80;;;11.70;99.90;;;;;;4998945;28;20581;-81
2021/10/08 02:19:29;;;;;;;7.40;6.20;;;11.70;99.90;;;;;;4998555;28;20569;-81
2021/10/08 02:22:01;;;;;;;7.90;6.78;;;11.70;99.90;;;;;;4998400;28;20261;-81
2021/10/08 02:24:32;;;;;;;8.38;6.50;;;11.70;99.90;;;;;;4998048;28;20206;-81
2021/10/08 02:26:58;;;;;;;6.90;6.30;;;11.70;99.90;;;;;;5015963;28;20184;-81
2021/10/08 02:29:28;;;;;;;7.93;6.43;;;11.70;99.90;;;;;;4998426;28;20577;-81
2021/10/08 02:31:56;;;;;;;7.88;6.18;;;11.70;99.90;;;;;;4997828;28;20202;-81
2021/10/08 02:34:23;;;;;;;6.82;6.10;;;11.70;99.90;;;;;;5003383;28;20202;-81
2021/10/08 02:36:49;;;;;;;6.63;5.90;;;11.60;99.90;;;;;;4982030;28;20169;-81
2021/10/08 02:39:14;;;;;;;9.53;7.07;;;11.60;99.90;;;;;;4998161;28;20961;-81
2021/10/08 02:41:41;;;;;;;6.90;6.28;;;11.60;99.90;;;;;;4997859;28;20588;-81
2021/10/08 02:44:07;;;;;;;6.67;5.97;;;11.60;99.90;;;;;;4998240;28;20571;-81
2021/10/08 02:46:38;;;;;;;7.95;5.25;;;11.60;99.90;;;;;;4981448;28;20200;-81
2021/10/08 02:49:05;;;;;;;8.75;6.30;;;11.60;99.90;;;;;;4998301;28;20174;-81
2021/10/08 02:51:33;;;;;;;7.40;6.05;;;11.60;99.90;;;;;;4997541;28;20202;-81
2021/10/08 02:54:01;;;;;;;6.65;5.95;;;11.60;99.90;;;;;;4997386;28;20182;-81
2021/10/08 02:56:28;;;;;;;8.63;6.72;;;11.60;99.90;;;;;;4981386;28;20170;-82
2021/10/08 02:58:54;;;;;;;6.32;5.82;;;11.60;99.90;;;;;;5014999;28;20162;-82
2021/10/08 03:01:20;;;;;;;6.77;6.10;;;11.50;99.90;;;;;;4981268;28;20269;-81
2021/10/08 03:03:46;;;;;;;6.90;5.97;;;11.50;99.90;;;;;;4997617;28;20612;-81
2021/10/08 03:06:11;;;;;;;7.53;5.87;;;11.50;99.90;;;;;;5015082;28;20182;-81
2021/10/08 03:08:37;;;;;;;7.40;6.30;;;11.50;99.90;;;;;;4997614;28;20217;-82
2021/10/08 03:11:03;;;;;;;7.03;5.63;;;11.50;99.90;;;;;;5024615;28;20190;-81
2021/10/08 03:13:30;;;;;;;7.70;6.72;;;11.40;99.90;;;;;;4981363;28;20245;-81
2021/10/08 03:15:56;;;;;;;7.60;6.17;;;11.40;99.90;;;;;;4997337;28;20269;-81
2021/10/08 03:18:22;;;;;;;7.70;5.87;;;11.40;99.90;;;;;;4997215;28;20531;-81
2021/10/08 03:20:48;;;;;;;7.03;5.50;;;11.50;99.90;;;;;;4997195;28;20569;-81
2021/10/08 03:23:14;;;;;;;7.65;6.20;;;11.40;99.90;;;;;;4965099;28;20178;-81
2021/10/08 03:25:39;;;;;;;7.27;5.80;;;11.40;99.90;;;;;;4996855;28;20194;-81
2021/10/08 03:28:06;;;;;;;7.10;6.40;;;11.40;99.90;;;;;;5015169;28;20171;-81
2021/10/08 03:30:33;;;;;;;7.38;5.90;;;11.30;99.90;;;;;;4996760;28;20577;-81
2021/10/08 03:32:59;;;;;;;8.90;6.45;;;11.30;99.90;;;;;;5014733;28;20202;-82
2021/10/08 03:35:26;;;;;;;8.85;7.15;;;11.20;99.90;;;;;;4996600;28;20190;-81
2021/10/08 03:37:55;;;;;;;8.63;6.70;;;11.20;99.90;;;;;;5014991;28;20232;-81
2021/10/08 03:40:25;;;;;;;9.85;7.07;;;11.20;99.90;;;;;;4996886;28;20175;-82
2021/10/08 03:42:51;;;;;;;8.43;7.05;;;11.10;99.90;;;;;;5014728;28;20171;-82
2021/10/08 03:45:17;;;;;;;7.35;6.65;;;11.10;99.90;;;;;;4980540;28;20659;-82
2021/10/08 03:50:19;;;;;;;8.63;7.22;;;11.10;99.90;;;;;;4996586;28;20174;-81
2021/10/08 03:52:44;;;;;;;8.57;7.68;;;11.00;99.90;;;;;;4980558;28;20209;-82
2021/10/08 03:55:10;;;;;;;7.57;6.80;;;11.10;99.90;;;;;;4996760;28;20716;-82
2021/10/08 03:57:36;;;;;;;7.33;6.50;;;11.00;99.90;;;;;;4997098;28;20305;-82
2021/10/08 04:00:02;;;;;;;8.23;7.27;;;11.00;99.90;;;;;;5014928;28;20249;-81
2021/10/08 04:02:30;;;;;;;8.05;7.25;;;11.10;99.90;;;;;;4996977;28;20175;-81
2021/10/08 04:04:56;;;;;;;9.13;7.20;;;11.10;99.90;;;;;;4996347;28;20197;-82
2021/10/08 04:07:21;;;;;;;8.27;7.23;;;11.00;99.90;;;;;;4996061;28;20569;-82
2021/10/08 04:09:47;;;;;;;7.57;6.70;;;11.00;99.90;;;;;;4980380;28;20268;-81
2021/10/08 04:12:13;;;;;;;8.33;7.17;;;11.00;99.90;;;;;;4995846;28;20190;-81
2021/10/08 04:14:39;;;;;;;8.02;7.22;;;11.00;99.90;;;;;;5023211;23;20230;-79
2021/10/08 04:17:05;;;;;;;7.73;6.20;;;11.00;99.90;;;;;;5020208;28;20232;-79
2021/10/08 04:19:31;;;;;;;7.55;6.78;;;11.00;99.90;;;;;;4996254;28;20635;-78
2021/10/08 04:21:58;;;;;;;6.55;5.43;;;11.00;99.90;;;;;;5011773;28;20178;-79
2021/10/08 04:24:24;;;;;;;9.47;6.50;;;11.00;99.90;;;;;;5009069;28;20241;-77
2021/10/08 04:26:50;;;;;;;8.65;7.35;;;11.00;99.90;;;;;;4993239;28;20167;-76
2021/10/08 04:29:16;;;;;;;7.97;6.30;;;11.00;99.90;;;;;;4976386;28;20171;-76
2021/10/08 04:31:42;;;;;;;7.57;6.23;;;11.00;99.90;;;;;;4992133;28;20617;-77
2021/10/08 04:34:07;;;;;;;7.60;6.30;;;11.00;99.90;;;;;;4995685;28;20190;-76
2021/10/08 04:36:40;;;;;;;6.47;5.88;;;11.00;99.90;;;;;;4991620;28;20627;-76
2021/10/08 04:39:07;;;;;;;7.47;6.78;;;11.00;99.90;;;;;;4992582;28;20182;-76
2021/10/08 04:41:33;;;;;;;7.57;5.85;;;11.00;99.90;;;;;;4976604;28;20544;-76
2021/10/08 04:43:59;;;;;;;7.63;6.60;;;11.00;99.90;;;;;;4993229;28;20709;-79
2021/10/08 04:46:25;;;;;;;7.90;6.88;;;10.90;99.90;;;;;;4991865;28;20183;-77
2021/10/08 04:48:52;;;;;;;7.28;6.07;;;10.90;99.90;;;;;;5003728;28;20178;-77
2021/10/08 04:51:18;;;;;;;6.70;5.77;;;10.90;99.90;;;;;;5012756;28;20256;-77
2021/10/08 04:53:44;;;;;;;8.87;6.53;;;10.90;99.90;;;;;;5001048;28;20250;-78
2021/10/08 04:56:10;;;;;;;9.10;5.40;;;10.90;99.90;;;;;;4991673;28;20602;-78
2021/10/08 04:58:36;;;;;;;8.25;5.93;;;10.90;99.90;;;;;;4991693;28;20574;-78
2021/10/08 05:01:03;;;;;;;6.93;5.80;;;10.90;99.90;;;;;;4975556;28;20656;-76
2021/10/08 05:03:29;;;;;;;6.38;5.72;;;10.90;99.90;;;;;;5011302;28;20541;-77
2021/10/08 05:05:55;;;;;;;7.33;5.00;;;10.90;99.90;;;;;;5011103;28;20282;-76
2021/10/08 05:08:28;;;;;;;7.10;6.25;;;10.90;99.90;;;;;;4994933;28;20573;-77
2021/10/08 05:10:54;;;;;;;6.28;5.40;;;10.80;99.90;;;;;;5015246;28;20537;-75
2021/10/08 05:13:23;;;;;;;6.43;5.45;;;10.80;99.90;;;;;;5011093;28;20174;-75
2021/10/08 05:15:48;;;;;;;7.10;5.57;;;10.80;99.90;;;;;;5010244;28;20198;-75
2021/10/08 05:18:14;;;;;;;6.80;5.63;;;10.80;99.90;;;;;;5008821;28;20919;-76
2021/10/08 05:20:42;;;;;;;6.45;5.63;;;10.80;99.90;;;;;;4990040;28;20581;-76
2021/10/08 05:23:08;;;;;;;7.85;6.13;;;10.80;99.90;;;;;;4990730;28;20221;-75
2021/10/08 05:25:34;;;;;;;6.10;5.20;;;10.80;99.90;;;;;;4990346;28;20720;-76
2021/10/08 05:28:01;;;;;;;7.05;5.50;;;10.80;99.90;;;;;;4990728;28;20171;-76
2021/10/08 05:30:26;;;;;;;6.47;5.87;;;10.80;99.90;;;;;;4990044;28;20185;-76
2021/10/08 05:32:52;;;;;;;6.17;5.13;;;10.80;99.90;;;;;;4991421;28;20815;-79
2021/10/08 05:35:20;;;;;;;7.35;5.68;;;10.80;99.90;;;;;;4990826;28;20598;-79
2021/10/08 05:37:46;;;;;;;6.57;5.03;;;10.80;99.90;;;;;;4991374;28;20209;-79
2021/10/08 05:40:12;;;;;;;5.83;5.23;;;10.80;99.90;;;;;;5007113;28;20167;-80
2021/10/08 05:42:40;;;;;;;8.18;6.22;;;10.80;99.90;;;;;;4975019;28;21155;-78
2021/10/08 05:45:07;;;;;;;5.83;4.87;;;10.80;99.90;;;;;;4991589;28;20202;-79
2021/10/08 05:47:32;;;;;;;6.30;5.10;;;10.80;99.90;;;;;;5011180;28;20575;-78
2021/10/08 05:49:58;;;;;;;5.97;4.97;;;10.90;99.90;;;;;;4995428;28;20686;-79
2021/10/08 05:52:24;;;;;;;8.10;6.37;;;10.90;99.90;;;;;;4977502;28;20210;-79
2021/10/08 05:54:50;;;;;;;5.70;5.20;;;10.90;99.90;;;;;;4961853;28;20633;-79
2021/10/08 05:57:16;;;;;;;10.05;5.55;;;10.80;99.90;;;;;;4994408;28;20170;-79
2021/10/08 05:59:44;;;;;;;7.40;5.60;;;10.80;99.90;;;;;;4994840;28;20595;-79
2021/10/08 06:02:11;;;;;;;6.47;5.65;;;10.80;99.90;;;;;;4995374;28;20537;-78
2021/10/08 06:04:37;;;;;;;5.53;5.00;;;10.80;99.90;;;;;;4995316;28;20187;-78
2021/10/08 06:07:06;;;;;;;7.00;5.57;;;10.80;99.90;;;;;;5010463;28;20214;-79
2021/10/08 06:09:36;;;;;;;5.78;5.15;;;10.90;99.90;;;;;;4978467;28;20546;-79
2021/10/08 06:12:03;;;;;;;7.15;5.25;;;10.90;99.90;;;;;;4994319;28;20553;-80
2021/10/08 06:14:34;;;;;;;5.50;5.00;;;10.90;99.90;;;;;;4980453;28;1055997;-79
2021/10/08 06:17:01;;;;;;;6.10;5.50;;;10.90;99.90;;;;;;5008937;28;20955;-78
2021/10/08 06:19:27;;;;;;;5.22;4.72;;;10.90;99.90;;;;;;5000059;28;20523;-77
2021/10/08 06:21:53;;;;;;;6.15;5.53;;;10.90;99.90;;;;;;4997726;28;20209;-78
2021/10/08 06:24:19;;;;;;;7.50;5.10;;;11.00;99.90;;;;;;5008004;28;20198;-78
2021/10/08 06:26:45;;;;;;;6.87;5.70;;;11.00;99.90;;;;;;5006545;28;20574;-78
2021/10/08 06:29:10;;;;;;;7.87;4.77;;;11.00;99.90;;;;;;4995113;28;20599;-78
2021/10/08 06:31:36;;;;;;;5.67;5.00;;;11.10;99.90;;;;;;5004766;28;20210;-79
2021/10/08 06:34:02;;;;;;;5.93;5.18;;;11.10;99.90;;;;;;5002437;28;20222;-79
2021/10/08 06:36:28;;;;;;;7.95;4.10;;;11.10;99.90;;;;;;5007779;28;20185;-79
2021/10/08 06:38:55;;;;;;;7.63;5.13;;;11.10;99.90;;;;;;4997498;28;20175;-79
2021/10/08 06:41:22;;;;;;;5.85;5.25;;;11.10;99.90;;;;;;5005136;28;20182;-79
2021/10/08 06:43:53;;;;;;;7.55;5.68;;;11.20;99.90;;;;;;4997587;28;20214;-80
2021/10/08 06:46:25;;;;;;;5.38;4.30;;;11.10;99.90;;;;;;5003689;28;20733;-79
2021/10/08 06:48:52;;;;;;;6.50;5.10;;;11.20;99.90;;;;;;5003937;28;20234;-80
2021/10/08 06:51:19;;;;;;;5.47;4.97;;;11.20;99.90;;;;;;5004551;28;20241;-81
2021/10/08 06:53:45;;;;;;;5.28;4.72;;;11.10;99.90;;;;;;5006264;28;20175;-79
2021/10/08 06:56:12;;;;;;;6.25;5.10;;;11.10;99.90;;;;;;4997707;28;20207;-79
2021/10/08 06:58:51;;;;;;;4.78;4.38;;;11.10;99.90;;;;;;4993654;28;20226;-80
2021/10/08 07:01:17;;;;;;;6.50;4.70;;;11.10;99.90;;;;;;5004181;28;20175;-80
2021/10/08 07:03:43;;;;;;;5.17;4.67;;;11.00;99.90;;;;;;5005210;28;20613;-79
2021/10/08 07:06:09;;;;;;;5.55;4.20;;;11.10;99.90;;;;;;5012818;28;20739;-79
2021/10/08 07:08:36;;;;;;;4.72;4.05;;;11.10;99.90;;;;;;5012229;28;20210;-80
2021/10/08 07:11:02;;;;;;;8.40;5.83;;;11.20;99.90;;;;;;5006006;28;20225;-80
2021/10/08 07:13:28;;;;;;;5.23;4.50;;;11.20;99.90;;;;;;5003202;28;20220;-80
2021/10/08 07:15:53;;;;;;;7.13;4.47;;;11.20;99.90;;;;;;4995267;28;20644;-80
2021/10/08 07:18:24;;;;;;;6.70;5.70;;;11.30;99.90;;;;;;4999279;28;20233;-80
2021/10/08 07:20:50;;;;;;;5.63;4.57;;;11.40;99.90;;;;;;5006915;28;20175;-79
2021/10/08 07:23:16;;;;;;;5.37;4.60;;;11.40;99.90;;;;;;5002408;28;20193;-80
2021/10/08 07:25:42;;;;;;;6.82;4.97;;;11.40;99.90;;;;;;5001226;28;20191;-80
2021/10/08 07:28:07;;;;;;;5.50;3.97;;;11.50;99.90;;;;;;5008906;28;20183;-80
2021/10/08 07:30:33;;;;;;;5.37;4.27;;;11.60;99.90;;;;;;5000236;28;20187;-80
2021/10/08 07:32:59;;;;;;;8.40;5.20;;;11.60;99.90;;;;;;4996612;28;20202;-80
2021/10/08 07:35:25;;;;;;;6.77;4.67;;;11.70;99.90;;;;;;5003462;28;20190;-75
2021/10/08 07:37:50;;;;;;;6.23;5.63;;;11.80;99.90;;;;;;4997056;28;20710;-74
2021/10/08 07:40:16;;;;;;;7.37;5.30;;;11.90;99.90;;;;;;5012643;28;20182;-76
2021/10/08 07:42:42;;;;;;;5.70;5.20;;;12.00;99.90;;;;;;4995008;28;20171;-75
2021/10/08 07:45:10;;;;;;;8.60;5.37;;;12.10;99.90;;;;;;5009207;28;20209;-78
2021/10/08 07:47:36;;;;;;;6.93;5.90;;;12.10;99.90;;;;;;5013192;28;20577;-77
2021/10/08 07:50:04;;;;;;;8.25;6.22;;;12.30;99.90;;;;;;5022307;28;20633;-77
2021/10/08 07:52:30;;;;;;;5.05;4.07;;;12.60;99.90;;;;;;5015416;28;20202;-77
2021/10/08 07:54:55;;;;;;;5.93;4.70;;;13.20;99.90;;;;;;5019871;28;21604;-78
2021/10/08 07:57:21;;;;;;;4.90;4.20;;;13.90;99.90;;;;;;5011657;28;20708;-78
2021/10/08 07:59:47;;;;;;;4.00;3.60;;;14.80;99.90;;;;;;5002754;28;20171;-76
2021/10/08 08:02:12;;;;;;;4.63;4.20;;;15.90;99.90;;;;;;5002589;28;20187;-76
2021/10/08 08:04:38;;;;;;;5.10;4.00;;;17.00;99.90;;;;;;5001702;28;20202;-76
2021/10/08 08:07:05;;;;;;;3.90;3.60;;;18.20;99.90;;;;;;5006735;28;20621;-76
2021/10/08 08:09:31;;;;;;;3.63;3.10;;;19.30;99.90;;;;;;5001664;28;20180;-75
2021/10/08 08:11:56;;;;;;;3.47;3.17;;;20.50;99.90;;;;;;4998463;28;20630;-77
2021/10/08 08:14:22;;;;;;;3.53;3.23;;;21.50;99.90;;;;;;5013057;28;20716;-77
2021/10/08 08:16:48;;;;;;;3.53;2.70;;;22.60;99.90;;;;;;5009252;28;20609;-76
2021/10/08 08:19:14;;;;;;;3.10;2.67;;;23.60;99.90;;;;;;5015480;28;20630;-77
2021/10/08 08:21:41;;;;;;;2.90;2.70;;;24.50;99.90;;;;;;5010815;28;20181;-77
2021/10/08 08:24:08;;;;;;;3.10;2.80;;;25.40;99.90;;;;;;5009903;28;20260;-77
2021/10/08 08:26:35;;;;;;;4.63;3.17;;;26.20;99.90;;;;;;5014041;28;20669;-76
2021/10/08 08:29:02;;;;;;;3.07;2.77;;;26.90;99.90;;;;;;5013719;28;20578;-76
2021/10/08 08:31:27;;;;;;;6.97;4.20;;;27.60;99.90;;;;;;5012118;28;20636;-76
2021/10/08 08:33:53;;;;;;;3.30;3.00;;;28.20;99.90;;;;;;5012374;28;20692;-76
2021/10/08 08:36:23;;;;;;;4.53;3.43;;;28.60;99.90;;;;;;5020843;28;20197;-76
2021/10/08 08:38:49;;;;;;;3.97;3.17;;;29.00;99.90;;;;;;5011424;28;20997;-75
2021/10/08 08:41:15;;;;;;;3.13;2.73;;;29.40;99.90;;;;;;5013856;28;20597;-76
2021/10/08 08:43:40;;;;;;;3.50;3.20;;;29.90;99.90;;;;;;5000563;28;20586;-76
2021/10/08 08:46:06;;;;;;;2.60;2.40;;;30.30;99.90;;;;;;5013120;28;20208;-76
2021/10/08 08:48:32;;;;;;;7.17;3.33;;;30.70;99.90;;;;;;5003348;28;20373;-76
2021/10/08 08:50:57;;;;;;;4.67;3.03;;;31.00;99.90;;;;;;5000001;28;20189;-77
2021/10/08 08:53:23;;;;;;;2.63;2.43;;;31.40;99.90;;;;;;5007674;28;20176;-76
2021/10/08 08:55:51;;;;;;;3.37;3.07;;;31.80;99.90;;;;;;5000041;28;20203;-77
2021/10/08 08:58:18;;;;;;;3.50;2.73;;;32.10;99.90;;;;;;5003007;28;20195;-77
2021/10/08 09:00:54;;;;;;;5.93;3.60;;;32.50;99.50;;;;;;4999158;28;20633;-76
2021/10/08 09:03:19;;;;;;;3.70;2.80;;;32.80;98.30;;;;;;5010809;28;20596;-75
2021/10/08 09:05:47;;;;;;;2.87;2.27;;;33.10;97.20;;;;;;5009964;28;20620;-77
2021/10/08 09:08:14;;;;;;;3.70;2.77;;;33.30;95.80;;;;;;5014489;28;20245;-76
2021/10/08 09:10:42;;;;;;;6.50;2.13;;;33.60;93.10;;;;;;5025948;28;20677;-76
2021/10/08 09:13:08;;;;;;;2.13;1.93;;;33.70;92.40;;;;;;5020484;28;21215;-76
2021/10/08 09:16:03;;;;;;;4.67;2.57;;;33.90;91.50;;;;;;5003548;28;20748;-76
2021/10/08 09:18:30;;;;;;;3.03;2.20;;;34.10;91.90;;;;;;4999162;28;20593;-76
2021/10/08 09:21:03;;;;;;;2.60;2.40;;;34.30;90.20;;;;;;5011858;28;20593;-76
2021/10/08 09:23:37;;;;;;;2.20;2.00;;;34.60;87.40;;;;;;5008140;28;21015;-76
2021/10/08 09:26:12;;;;;;;2.70;2.50;;;34.80;85.70;;;;;;4997513;28;20613;-76
2021/10/08 09:29:16;;;;;;;2.10;1.77;;;35.00;83.60;;;;;;5008225;28;20571;-76
2021/10/08 09:31:43;;;;;;;2.53;2.33;;;35.10;82.70;;;;;;4953553;29;20640;-76
2021/10/08 09:34:10;;;;;;;3.40;2.10;;;35.00;78.30;;;;;;4989544;28;20971;-75
2021/10/08 09:36:36;;;;;;;3.93;2.00;;;35.00;76.30;;;;;;4998326;28;20717;-75
2021/10/08 09:39:15;;;;;;;2.93;1.80;;;35.10;75.10;;;;;;5006153;28;20989;-76
2021/10/08 09:41:41;;;;;;;3.23;1.90;;;35.00;72.10;;;;;;5018121;28;20588;-76
2021/10/08 09:44:10;;;;;;;4.00;2.87;;;35.00;71.30;;;;;;5005713;28;20632;-76
2021/10/08 09:46:36;;;;;;;2.40;2.07;;;35.00;69.50;;;;;;5013070;28;20182;-76
2021/10/08 09:49:01;;;;;;;2.30;1.93;;;34.70;67.80;;;;;;5017613;28;20985;-76
2021/10/08 09:51:31;;;;;;;2.37;2.07;;;34.40;66.60;;;;;;5023047;28;20213;-76
2021/10/08 09:53:58;;;;;;;3.43;2.67;;;34.30;65.80;;;;;;5018182;28;20179;-76
2021/10/08 09:56:36;;;;;;;3.00;2.20;;;34.30;65.40;;;;;;5009906;28;20660;-76
2021/10/08 09:59:07;;;;;;;3.93;1.90;;;34.30;64.20;;;;;;5012902;28;20613;-77
2021/10/08 10:01:35;;;;;;;3.50;2.60;;;34.50;64.10;;;;;;4996923;28;20614;-76
2021/10/08 10:04:02;;;;;;;2.40;2.20;;;34.50;63.80;;;;;;5006684;28;20574;-76
2021/10/08 10:06:31;;;;;;;4.63;2.57;;;34.50;63.30;;;;;;5029370;28;20585;-76
2021/10/08 10:08:57;;;;;;;3.10;2.47;;;34.50;63.00;;;;;;5007251;28;20695;-76
2021/10/08 10:11:25;;;;;;;2.63;2.30;;;34.50;62.10;;;;;;5005233;28;20717;-76
2021/10/08 10:13:55;;;;;;;3.87;3.57;;;34.40;61.90;;;;;;5004392;28;20593;-76
2021/10/08 10:16:21;;;;;;;3.70;2.80;;;34.20;61.40;;;;;;5049795;23;20683;-81
2021/10/08 10:18:48;;;;;;;3.60;3.03;;;33.90;60.60;;;;;;5050498;28;20951;-82
2021/10/08 10:21:19;;;;;;;3.57;3.00;;;33.60;60.20;;;;;;5049744;28;20619;-82
2021/10/08 10:23:45;;;;;;;3.23;2.43;;;33.30;59.10;;;;;;5050519;28;20580;-81
2021/10/08 10:26:11;;;;;;;2.40;2.20;;;33.00;59.50;;;;;;5051056;28;20621;-80
2021/10/08 10:28:37;;;;;;;3.57;3.10;;;32.80;60.00;;;;;;4999526;28;20643;-80
2021/10/08 10:31:04;;;;;;;3.40;3.10;;;32.60;60.00;;;;;;5043718;28;20577;-80
2021/10/08 10:33:30;;;;;;;2.90;2.33;;;32.50;60.70;;;;;;5027208;28;20257;-80
2021/10/08 10:35:59;;;;;;;2.63;2.30;;;32.40;60.40;;;;;;5029113;28;20626;-79
2021/10/08 10:38:26;;;;;;;2.73;2.50;;;32.30;60.80;;;;;;5052199;28;20607;-79
2021/10/08 10:41:07;;;;;;;3.03;2.03;;;32.20;59.50;;;;;;5046482;28;20583;-81
2021/10/08 10:43:36;;;;;;;2.23;1.90;;;32.10;58.90;;;;;;5039017;28;20582;-80
2021/10/08 10:51:58;;;;;;;2.07;1.87;;;31.90;59.40;;;;;;5019073;28;21015;-80
2021/10/08 10:54:48;;;;;;;2.80;1.97;;;31.90;59.30;;;;;;5053739;28;20914;-81
2021/10/08 10:57:20;;;;;;;2.63;2.30;;;31.80;58.00;;;;;;5033053;28;20647;-81
2021/10/08 10:59:46;;;;;;;3.00;2.40;;;31.50;55.20;;;;;;5046544;28;20639;-80
2021/10/08 11:02:14;;;;;;;2.43;2.10;;;31.20;56.40;;;;;;5035175;28;20658;-80
2021/10/08 11:04:41;;;;;;;2.97;2.07;;;31.00;57.50;;;;;;5030293;28;20580;-80
2021/10/08 11:07:12;;;;;;;2.47;1.80;;;30.90;57.40;;;;;;5049599;28;20575;-81
2021/10/08 11:09:42;;;;;;;2.73;2.00;;;30.80;57.20;;;;;;5037686;28;20943;-80
2021/10/08 11:12:28;;;;;;;3.47;2.20;;;30.80;58.00;;;;;;5037767;28;20582;-81
2021/10/08 11:17:48;;;;;;;3.10;2.80;;;30.40;52.80;;;;;;5043013;28;20737;-80
2021/10/08 11:20:29;;;;;;;3.37;2.03;;;30.10;56.40;;;;;;5053911;28;20630;-80
2021/10/08 11:23:02;;;;;;;2.50;2.03;;;29.90;56.80;;;;;;5039490;28;20633;-79
2021/10/08 11:25:30;;;;;;;2.73;2.50;;;29.80;57.90;;;;;;5049033;28;20611;-80
2021/10/08 11:27:56;;;;;;;2.93;2.20;;;29.80;58.10;;;;;;5053314;28;20603;-81
2021/10/08 11:30:26;;;;;;;5.00;2.50;;;29.80;58.00;;;;;;5031856;28;20583;-81
2021/10/08 11:32:53;;;;;;;2.30;1.57;;;29.60;56.70;;;;;;5029620;28;20590;-81
2021/10/08 11:35:29;;;;;;;3.63;1.80;;;29.40;58.00;;;;;;5037790;28;20611;-80
2021/10/08 11:37:55;;;;;;;2.40;1.63;;;29.20;57.10;;;;;;5018668;28;20583;-80
2021/10/08 11:40:37;;;;;;;2.70;2.20;;;29.20;58.00;;;;;;5041766;28;20586;-81
2021/10/08 11:43:09;;;;;;;3.60;2.40;;;29.10;56.80;;;;;;5012825;28;20189;-80
2021/10/08 11:46:10;;;;;;;3.20;2.40;;;29.10;58.00;;;;;;5026477;28;20619;-80
2021/10/08 11:48:43;;;;;;;2.73;1.93;;;29.00;58.00;;;;;;5031275;28;20591;-79
2021/10/08 11:51:09;;;;;;;3.03;2.03;;;28.70;57.20;;;;;;5037684;28;20598;-80
2021/10/08 11:53:45;;;;;;;1.80;1.50;;;28.40;57.50;;;;;;5029342;28;20946;-80
2021/10/08 11:56:33;;;;;;;2.00;1.20;;;28.20;57.80;;;;;;5034928;28;20534;-81
2021/10/08 11:58:58;;;;;;;1.83;1.40;;;28.10;58.30;;;;;;5030965;28;20582;-81
2021/10/08 12:01:30;;;;;;;2.20;1.80;;;28.20;59.10;;;;;;5028956;28;20958;-81
2021/10/08 12:03:56;;;;;;;2.00;1.30;;;28.10;58.80;;;;;;5042693;28;20173;-80
2021/10/08 12:06:29;;;;;;;2.20;1.83;;;28.10;59.10;;;;;;5037915;28;20817;-80
2021/10/08 12:08:57;;;;;;;2.10;1.60;;;28.10;58.60;;;;;;5052246;28;20586;-80
2021/10/08 12:11:26;;;;;;;2.27;1.90;;;27.90;59.10;;;;;;5027792;28;20674;-80
2021/10/08 12:13:58;;;;;;;2.10;1.40;;;27.70;58.70;;;;;;5036259;28;20602;-80
2021/10/08 12:16:38;;;;;;;1.80;1.20;;;27.40;59.10;;;;;;5041577;28;20650;-81
2021/10/08 12:19:05;;;;;;;3.13;1.67;;;27.30;59.00;;;;;;5052584;28;20674;-81
2021/10/08 12:21:38;;;;;;;3.13;2.17;;;27.20;59.80;;;;;;5044641;28;20635;-80
2021/10/08 12:24:05;;;;;;;2.77;1.70;;;27.10;59.90;;;;;;5034871;28;20615;-79
2021/10/08 12:26:32;;;;;;;2.30;1.30;;;26.80;59.20;;;;;;5035660;28;20640;-80
2021/10/08 12:29:00;;;;;;;2.80;1.53;;;26.60;59.40;;;;;;5044027;28;20587;-80
2021/10/08 12:31:46;;;;;;;1.73;1.30;;;26.30;59.40;;;;;;5049386;28;20661;-80
2021/10/08 12:34:12;;;;;;;2.37;1.13;;;25.90;59.50;;;;;;5046201;28;20576;-81
2021/10/08 12:36:38;;;;;;;2.33;1.23;;;25.60;59.30;;;;;;5037970;28;20687;-80
2021/10/08 12:39:17;;;;;;;2.47;1.80;;;25.30;59.70;;;;;;5051735;28;20579;-80
2021/10/08 12:41:50;;;;;;;2.53;1.30;;;24.80;60.10;;;;;;5009185;28;20292;-80
2021/10/08 12:44:23;;;;;;;2.23;1.57;;;24.50;60.10;;;;;;5032462;28;20629;-80
2021/10/08 12:46:58;;;;;;;2.43;1.43;;;24.20;60.70;;;;;;5040832;28;20649;-79
2021/10/08 12:49:24;;;;;;;3.10;1.83;;;23.90;61.90;;;;;;5051560;28;20595;-79
2021/10/08 12:51:52;;;;;;;3.50;1.50;;;23.50;61.30;;;;;;5051252;28;20580;-80
2021/10/08 12:54:24;;;;;;;2.83;1.43;;;23.00;61.80;;;;;;5043442;28;20188;-80
2021/10/08 12:57:09;;;;;;;2.20;1.00;;;22.70;62.50;;;;;;5044401;28;20718;-80
2021/10/08 12:59:45;;;;;;;3.23;1.57;;;22.50;63.00;;;;;;5037900;28;20935;-80
2021/10/08 13:02:11;;;;;;;2.20;1.60;;;22.30;64.30;;;;;;5037528;28;20904;-79